sensor_id;sensor_type;location;lat;lon;timestamp;P1;durP1;ratioP1;P2;durP2;ratioP2
21114;SDS011;10715;48.546;9.896;2022-10-28T00:01:20;5.50;;;2.47;;
21114;SDS011;10715;48.546;9.896;2022-10-28T00:03:52;3.60;;;2.20;;
21114;SDS011;10715;48.546;9.896;2022-10-28T00:06:21;2.20;;;2.00;;
21114;SDS011;10715;48.546;9.896;2022-10-28T00:08:51;4.00;;;1.70;;
21114;SDS011;10715;48.546;9.896;2022-10-28T00:11:27;1.83;;;1.73;;
21114;SDS011;10715;48.546;9.896;2022-10-28T00:13:56;2.40;;;1.70;;
21114;SDS011;10715;48.546;9.896;2022-10-28T00:16:24;8.73;;;1.97;;
21114;SDS011;10715;48.546;9.896;2022-10-28T00:18:55;2.40;;;2.17;;
21114;SDS011;10715;48.546;9.896;2022-10-28T00:21:24;2.97;;;2.13;;
21114;SDS011;10715;48.546;9.896;2022-10-28T00:23:52;2.00;;;1.83;;
21114;SDS011;10715;48.546;9.896;2022-10-28T00:26:28;6.10;;;2.17;;
21114;SDS011;10715;48.546;9.896;2022-10-28T00:28:59;3.20;;;1.97;;
21114;SDS011;10715;48.546;9.896;2022-10-28T00:31:27;4.77;;;4.30;;
21114;SDS011;10715;48.546;9.896;2022-10-28T00:33:54;3.43;;;2.10;;
21114;SDS011;10715;48.546;9.896;2022-10-28T00:36:22;3.50;;;1.57;;
21114;SDS011;10715;48.546;9.896;2022-10-28T00:38:54;4.30;;;2.00;;
21114;SDS011;10715;48.546;9.896;2022-10-28T00:41:30;2.13;;;1.83;;
21114;SDS011;10715;48.546;9.896;2022-10-28T00:44:01;4.63;;;1.83;;
21114;SDS011;10715;48.546;9.896;2022-10-28T00:46:47;3.70;;;2.93;;
21114;SDS011;10715;48.546;9.896;2022-10-28T00:49:18;2.70;;;2.03;;
21114;SDS011;10715;48.546;9.896;2022-10-28T00:51:47;2.90;;;2.30;;
21114;SDS011;10715;48.546;9.896;2022-10-28T00:54:16;2.60;;;2.40;;
21114;SDS011;10715;48.546;9.896;2022-10-28T00:56:44;4.40;;;1.90;;
21114;SDS011;10715;48.546;9.896;2022-10-28T00:59:34;3.47;;;1.77;;
21114;SDS011;10715;48.546;9.896;2022-10-28T01:02:01;1.70;;;1.53;;
21114;SDS011;10715;48.546;9.896;2022-10-28T01:04:29;1.97;;;1.47;;
21114;SDS011;10715;48.546;9.896;2022-10-28T01:06:55;3.93;;;2.00;;
21114;SDS011;10715;48.546;9.896;2022-10-28T01:09:22;3.00;;;1.73;;
21114;SDS011;10715;48.546;9.896;2022-10-28T01:28:34;5.60;;;2.40;;
21114;SDS011;10715;48.546;9.896;2022-10-28T01:31:29;1.87;;;1.47;;
21114;SDS011;10715;48.546;9.896;2022-10-28T01:37:03;2.57;;;2.20;;
21114;SDS011;10715;48.546;9.896;2022-10-28T01:44:49;4.87;;;2.80;;
21114;SDS011;10715;48.546;9.896;2022-10-28T01:47:36;3.00;;;2.80;;
21114;SDS011;10715;48.546;9.896;2022-10-28T01:50:43;3.57;;;3.37;;
21114;SDS011;10715;48.546;9.896;2022-10-28T01:53:11;2.80;;;2.60;;
21114;SDS011;10715;48.546;9.896;2022-10-28T01:55:41;3.37;;;2.23;;
21114;SDS011;10715;48.546;9.896;2022-10-28T01:58:10;2.70;;;2.50;;
21114;SDS011;10715;48.546;9.896;2022-10-28T02:00:39;2.80;;;2.17;;
21114;SDS011;10715;48.546;9.896;2022-10-28T02:03:08;3.60;;;2.30;;
21114;SDS011;10715;48.546;9.896;2022-10-28T02:30:03;5.40;;;2.70;;
21114;SDS011;10715;48.546;9.896;2022-10-28T02:32:40;1.93;;;1.73;;
21114;SDS011;10715;48.546;9.896;2022-10-28T02:35:11;1.87;;;1.70;;
21114;SDS011;10715;48.546;9.896;2022-10-28T02:37:41;4.53;;;1.70;;
21114;SDS011;10715;48.546;9.896;2022-10-28T02:40:11;7.10;;;2.57;;
21114;SDS011;10715;48.546;9.896;2022-10-28T02:42:45;3.90;;;1.97;;
21114;SDS011;10715;48.546;9.896;2022-10-28T02:45:18;3.50;;;2.30;;
21114;SDS011;10715;48.546;9.896;2022-10-28T02:47:52;2.53;;;1.63;;
21114;SDS011;10715;48.546;9.896;2022-10-28T02:50:23;1.53;;;1.40;;
21114;SDS011;10715;48.546;9.896;2022-10-28T02:52:55;2.20;;;2.10;;
21114;SDS011;10715;48.546;9.896;2022-10-28T02:55:23;2.97;;;2.20;;
21114;SDS011;10715;48.546;9.896;2022-10-28T02:57:53;2.63;;;1.50;;
21114;SDS011;10715;48.546;9.896;2022-10-28T03:00:21;3.73;;;2.27;;
21114;SDS011;10715;48.546;9.896;2022-10-28T03:02:49;4.17;;;2.50;;
21114;SDS011;10715;48.546;9.896;2022-10-28T03:05:14;3.80;;;2.80;;
21114;SDS011;10715;48.546;9.896;2022-10-28T03:07:41;2.60;;;2.10;;
21114;SDS011;10715;48.546;9.896;2022-10-28T03:10:07;4.00;;;2.03;;
21114;SDS011;10715;48.546;9.896;2022-10-28T03:12:33;4.67;;;2.50;;
21114;SDS011;10715;48.546;9.896;2022-10-28T03:14:59;4.57;;;2.80;;
21114;SDS011;10715;48.546;9.896;2022-10-28T03:17:25;2.50;;;2.30;;
21114;SDS011;10715;48.546;9.896;2022-10-28T03:19:51;6.83;;;2.83;;
21114;SDS011;10715;48.546;9.896;2022-10-28T03:22:17;3.23;;;2.90;;
21114;SDS011;10715;48.546;9.896;2022-10-28T03:24:42;2.50;;;2.30;;
21114;SDS011;10715;48.546;9.896;2022-10-28T03:27:08;2.83;;;2.50;;
21114;SDS011;10715;48.546;9.896;2022-10-28T03:29:34;3.37;;;2.53;;
21114;SDS011;10715;48.546;9.896;2022-10-28T03:31:59;3.93;;;2.90;;
21114;SDS011;10715;48.546;9.896;2022-10-28T03:34:25;5.23;;;3.57;;
21114;SDS011;10715;48.546;9.896;2022-10-28T03:36:51;6.77;;;3.63;;
21114;SDS011;10715;48.546;9.896;2022-10-28T03:39:16;7.70;;;3.30;;
21114;SDS011;10715;48.546;9.896;2022-10-28T03:41:42;7.33;;;3.43;;
21114;SDS011;10715;48.546;9.896;2022-10-28T03:44:08;6.57;;;3.83;;
21114;SDS011;10715;48.546;9.896;2022-10-28T03:46:33;7.37;;;4.00;;
21114;SDS011;10715;48.546;9.896;2022-10-28T03:48:59;4.13;;;3.77;;
21114;SDS011;10715;48.546;9.896;2022-10-28T03:51:25;6.10;;;4.17;;
21114;SDS011;10715;48.546;9.896;2022-10-28T03:53:50;5.63;;;4.37;;
21114;SDS011;10715;48.546;9.896;2022-10-28T03:56:16;4.70;;;4.00;;
21114;SDS011;10715;48.546;9.896;2022-10-28T03:58:42;4.20;;;3.20;;
21114;SDS011;10715;48.546;9.896;2022-10-28T04:01:07;4.07;;;3.77;;
21114;SDS011;10715;48.546;9.896;2022-10-28T04:03:33;7.93;;;2.83;;
21114;SDS011;10715;48.546;9.896;2022-10-28T04:05:59;10.27;;;3.87;;
21114;SDS011;10715;48.546;9.896;2022-10-28T04:08:24;4.90;;;3.77;;
21114;SDS011;10715;48.546;9.896;2022-10-28T04:10:50;3.00;;;2.80;;
21114;SDS011;10715;48.546;9.896;2022-10-28T04:13:16;4.10;;;2.97;;
21114;SDS011;10715;48.546;9.896;2022-10-28T04:15:42;4.23;;;3.40;;
21114;SDS011;10715;48.546;9.896;2022-10-28T04:18:08;3.33;;;3.03;;
21114;SDS011;10715;48.546;9.896;2022-10-28T04:20:34;2.90;;;2.20;;
21114;SDS011;10715;48.546;9.896;2022-10-28T04:23:00;4.50;;;2.40;;
21114;SDS011;10715;48.546;9.896;2022-10-28T04:25:26;4.40;;;2.53;;
21114;SDS011;10715;48.546;9.896;2022-10-28T04:27:51;2.93;;;2.00;;
21114;SDS011;10715;48.546;9.896;2022-10-28T04:30:18;3.27;;;2.97;;
21114;SDS011;10715;48.546;9.896;2022-10-28T04:32:45;3.43;;;2.40;;
21114;SDS011;10715;48.546;9.896;2022-10-28T04:35:11;8.70;;;4.83;;
21114;SDS011;10715;48.546;9.896;2022-10-28T04:37:37;6.40;;;3.57;;
21114;SDS011;10715;48.546;9.896;2022-10-28T04:40:04;5.37;;;3.60;;
21114;SDS011;10715;48.546;9.896;2022-10-28T04:42:31;2.87;;;2.03;;
21114;SDS011;10715;48.546;9.896;2022-10-28T04:44:56;5.63;;;3.13;;
21114;SDS011;10715;48.546;9.896;2022-10-28T04:47:22;4.23;;;3.20;;
21114;SDS011;10715;48.546;9.896;2022-10-28T04:49:48;8.40;;;4.73;;
21114;SDS011;10715;48.546;9.896;2022-10-28T04:52:13;4.77;;;4.10;;
21114;SDS011;10715;48.546;9.896;2022-10-28T04:54:39;8.33;;;4.90;;
21114;SDS011;10715;48.546;9.896;2022-10-28T04:57:05;7.00;;;4.47;;
21114;SDS011;10715;48.546;9.896;2022-10-28T04:59:31;7.30;;;5.70;;
21114;SDS011;10715;48.546;9.896;2022-10-28T05:01:56;7.90;;;5.37;;
21114;SDS011;10715;48.546;9.896;2022-10-28T05:04:22;5.80;;;3.90;;
21114;SDS011;10715;48.546;9.896;2022-10-28T05:06:48;6.07;;;5.03;;
21114;SDS011;10715;48.546;9.896;2022-10-28T05:09:13;6.90;;;5.80;;
21114;SDS011;10715;48.546;9.896;2022-10-28T05:11:39;19.43;;;9.90;;
21114;SDS011;10715;48.546;9.896;2022-10-28T05:14:05;12.03;;;7.40;;
21114;SDS011;10715;48.546;9.896;2022-10-28T05:16:31;8.80;;;7.60;;
21114;SDS011;10715;48.546;9.896;2022-10-28T05:18:57;12.60;;;6.97;;
21114;SDS011;10715;48.546;9.896;2022-10-28T05:21:22;7.60;;;5.40;;
21114;SDS011;10715;48.546;9.896;2022-10-28T05:23:48;8.83;;;6.03;;
21114;SDS011;10715;48.546;9.896;2022-10-28T05:26:14;7.57;;;6.47;;
21114;SDS011;10715;48.546;9.896;2022-10-28T05:28:40;10.00;;;6.10;;
21114;SDS011;10715;48.546;9.896;2022-10-28T05:31:05;9.03;;;6.87;;
21114;SDS011;10715;48.546;9.896;2022-10-28T05:33:31;9.07;;;6.43;;
21114;SDS011;10715;48.546;9.896;2022-10-28T05:36:00;8.80;;;5.90;;
21114;SDS011;10715;48.546;9.896;2022-10-28T05:38:26;6.93;;;5.40;;
21114;SDS011;10715;48.546;9.896;2022-10-28T05:40:52;8.17;;;5.43;;
21114;SDS011;10715;48.546;9.896;2022-10-28T05:43:18;5.10;;;3.93;;
21114;SDS011;10715;48.546;9.896;2022-10-28T05:45:50;10.03;;;4.37;;
21114;SDS011;10715;48.546;9.896;2022-10-28T05:48:19;10.43;;;4.50;;
21114;SDS011;10715;48.546;9.896;2022-10-28T05:50:45;8.40;;;5.30;;
21114;SDS011;10715;48.546;9.896;2022-10-28T05:53:11;6.33;;;5.17;;
21114;SDS011;10715;48.546;9.896;2022-10-28T05:55:37;14.93;;;6.23;;
21114;SDS011;10715;48.546;9.896;2022-10-28T05:58:02;7.13;;;5.83;;
21114;SDS011;10715;48.546;9.896;2022-10-28T06:00:29;7.83;;;7.03;;
21114;SDS011;10715;48.546;9.896;2022-10-28T06:03:09;8.50;;;6.90;;
21114;SDS011;10715;48.546;9.896;2022-10-28T06:05:36;5.63;;;5.23;;
21114;SDS011;10715;48.546;9.896;2022-10-28T06:08:07;4.73;;;4.27;;
21114;SDS011;10715;48.546;9.896;2022-10-28T06:10:34;6.47;;;5.93;;
21114;SDS011;10715;48.546;9.896;2022-10-28T06:13:00;6.23;;;5.57;;
21114;SDS011;10715;48.546;9.896;2022-10-28T06:15:25;10.30;;;7.30;;
21114;SDS011;10715;48.546;9.896;2022-10-28T06:17:51;11.67;;;9.53;;
21114;SDS011;10715;48.546;9.896;2022-10-28T06:20:17;8.20;;;6.80;;
21114;SDS011;10715;48.546;9.896;2022-10-28T06:22:50;9.30;;;6.40;;
21114;SDS011;10715;48.546;9.896;2022-10-28T06:25:17;8.97;;;5.90;;
21114;SDS011;10715;48.546;9.896;2022-10-28T06:27:44;7.47;;;6.77;;
21114;SDS011;10715;48.546;9.896;2022-10-28T06:30:15;9.40;;;7.47;;
21114;SDS011;10715;48.546;9.896;2022-10-28T06:32:41;11.53;;;5.50;;
21114;SDS011;10715;48.546;9.896;2022-10-28T06:35:07;4.80;;;4.40;;
21114;SDS011;10715;48.546;9.896;2022-10-28T06:37:33;8.70;;;6.10;;
21114;SDS011;10715;48.546;9.896;2022-10-28T06:39:58;6.70;;;6.00;;
21114;SDS011;10715;48.546;9.896;2022-10-28T06:42:24;10.10;;;7.30;;
21114;SDS011;10715;48.546;9.896;2022-10-28T06:44:50;9.27;;;7.57;;
21114;SDS011;10715;48.546;9.896;2022-10-28T06:47:16;9.47;;;7.57;;
21114;SDS011;10715;48.546;9.896;2022-10-28T06:49:42;6.43;;;5.80;;
21114;SDS011;10715;48.546;9.896;2022-10-28T06:52:08;7.60;;;6.13;;
21114;SDS011;10715;48.546;9.896;2022-10-28T06:54:33;6.73;;;6.07;;
21114;SDS011;10715;48.546;9.896;2022-10-28T06:56:59;7.10;;;6.40;;
21114;SDS011;10715;48.546;9.896;2022-10-28T06:59:25;6.77;;;6.07;;
21114;SDS011;10715;48.546;9.896;2022-10-28T07:01:50;7.50;;;6.73;;
21114;SDS011;10715;48.546;9.896;2022-10-28T07:04:16;6.10;;;5.47;;
21114;SDS011;10715;48.546;9.896;2022-10-28T07:06:42;6.47;;;4.80;;
21114;SDS011;10715;48.546;9.896;2022-10-28T07:09:08;5.50;;;4.40;;
21114;SDS011;10715;48.546;9.896;2022-10-28T07:11:38;4.70;;;4.23;;
21114;SDS011;10715;48.546;9.896;2022-10-28T07:14:04;8.03;;;4.57;;
21114;SDS011;10715;48.546;9.896;2022-10-28T07:16:30;5.90;;;4.67;;
21114;SDS011;10715;48.546;9.896;2022-10-28T07:18:56;9.80;;;4.73;;
21114;SDS011;10715;48.546;9.896;2022-10-28T07:21:21;14.70;;;4.40;;
21114;SDS011;10715;48.546;9.896;2022-10-28T07:23:52;8.43;;;4.33;;
21114;SDS011;10715;48.546;9.896;2022-10-28T07:26:19;9.80;;;3.57;;
21114;SDS011;10715;48.546;9.896;2022-10-28T07:28:45;6.77;;;4.83;;
21114;SDS011;10715;48.546;9.896;2022-10-28T07:31:11;6.70;;;4.90;;
21114;SDS011;10715;48.546;9.896;2022-10-28T07:33:36;13.10;;;11.33;;
21114;SDS011;10715;48.546;9.896;2022-10-28T07:36:03;7.37;;;5.53;;
21114;SDS011;10715;48.546;9.896;2022-10-28T07:38:29;9.70;;;6.13;;
21114;SDS011;10715;48.546;9.896;2022-10-28T07:40:55;6.57;;;5.40;;
21114;SDS011;10715;48.546;9.896;2022-10-28T07:43:21;8.23;;;6.10;;
21114;SDS011;10715;48.546;9.896;2022-10-28T07:45:47;7.17;;;6.50;;
21114;SDS011;10715;48.546;9.896;2022-10-28T07:48:19;6.60;;;6.00;;
21114;SDS011;10715;48.546;9.896;2022-10-28T07:50:44;7.07;;;5.47;;
21114;SDS011;10715;48.546;9.896;2022-10-28T07:53:10;10.47;;;5.80;;
21114;SDS011;10715;48.546;9.896;2022-10-28T07:55:36;6.20;;;5.70;;
21114;SDS011;10715;48.546;9.896;2022-10-28T07:58:01;6.00;;;4.93;;
21114;SDS011;10715;48.546;9.896;2022-10-28T08:00:27;10.90;;;6.27;;
21114;SDS011;10715;48.546;9.896;2022-10-28T08:02:53;12.10;;;6.20;;
21114;SDS011;10715;48.546;9.896;2022-10-28T08:05:19;10.17;;;6.17;;
21114;SDS011;10715;48.546;9.896;2022-10-28T08:07:44;12.73;;;5.90;;
21114;SDS011;10715;48.546;9.896;2022-10-28T08:10:12;9.33;;;7.20;;
21114;SDS011;10715;48.546;9.896;2022-10-28T08:12:38;35.60;;;20.17;;
21114;SDS011;10715;48.546;9.896;2022-10-28T08:15:04;15.47;;;8.20;;
21114;SDS011;10715;48.546;9.896;2022-10-28T08:17:30;89.70;;;39.13;;
21114;SDS011;10715;48.546;9.896;2022-10-28T08:19:56;59.43;;;26.83;;
21114;SDS011;10715;48.546;9.896;2022-10-28T08:22:21;144.90;;;58.57;;
21114;SDS011;10715;48.546;9.896;2022-10-28T08:24:47;89.13;;;40.87;;
21114;SDS011;10715;48.546;9.896;2022-10-28T08:27:13;70.20;;;35.47;;
21114;SDS011;10715;48.546;9.896;2022-10-28T08:29:39;37.17;;;19.77;;
21114;SDS011;10715;48.546;9.896;2022-10-28T08:32:07;14.97;;;8.90;;
21114;SDS011;10715;48.546;9.896;2022-10-28T08:34:33;14.73;;;8.47;;
21114;SDS011;10715;48.546;9.896;2022-10-28T08:36:59;11.30;;;5.97;;
21114;SDS011;10715;48.546;9.896;2022-10-28T08:39:25;11.43;;;6.53;;
21114;SDS011;10715;48.546;9.896;2022-10-28T08:49:42;10.23;;;5.53;;
21114;SDS011;10715;48.546;9.896;2022-10-28T08:54:59;10.97;;;5.50;;
21114;SDS011;10715;48.546;9.896;2022-10-28T08:57:49;14.83;;;6.43;;
21114;SDS011;10715;48.546;9.896;2022-10-28T09:00:17;9.87;;;4.77;;
21114;SDS011;10715;48.546;9.896;2022-10-28T09:05:33;14.80;;;7.60;;
21114;SDS011;10715;48.546;9.896;2022-10-28T09:07:59;9.63;;;5.70;;
21114;SDS011;10715;48.546;9.896;2022-10-28T09:16:38;9.40;;;4.53;;
21114;SDS011;10715;48.546;9.896;2022-10-28T09:33:06;14.60;;;4.87;;
21114;SDS011;10715;48.546;9.896;2022-10-28T09:35:35;4.93;;;2.93;;
21114;SDS011;10715;48.546;9.896;2022-10-28T09:40:45;5.83;;;3.50;;
21114;SDS011;10715;48.546;9.896;2022-10-28T09:45:52;7.77;;;5.10;;
21114;SDS011;10715;48.546;9.896;2022-10-28T09:48:32;5.20;;;3.80;;
21114;SDS011;10715;48.546;9.896;2022-10-28T09:51:01;4.20;;;3.50;;
21114;SDS011;10715;48.546;9.896;2022-10-28T09:53:30;5.63;;;4.10;;
21114;SDS011;10715;48.546;9.896;2022-10-28T09:56:04;5.23;;;2.90;;
21114;SDS011;10715;48.546;9.896;2022-10-28T09:58:31;14.10;;;4.33;;
21114;SDS011;10715;48.546;9.896;2022-10-28T10:00:58;8.80;;;3.83;;
21114;SDS011;10715;48.546;9.896;2022-10-28T10:03:24;7.67;;;4.67;;
21114;SDS011;10715;48.546;9.896;2022-10-28T10:05:50;5.47;;;3.63;;
21114;SDS011;10715;48.546;9.896;2022-10-28T10:08:20;5.57;;;3.50;;
21114;SDS011;10715;48.546;9.896;2022-10-28T10:13:22;12.53;;;5.27;;
21114;SDS011;10715;48.546;9.896;2022-10-28T10:15:55;12.20;;;5.37;;
21114;SDS011;10715;48.546;9.896;2022-10-28T10:18:27;14.00;;;3.77;;
21114;SDS011;10715;48.546;9.896;2022-10-28T10:20:57;4.43;;;3.30;;
21114;SDS011;10715;48.546;9.896;2022-10-28T10:23:33;4.03;;;2.27;;
21114;SDS011;10715;48.546;9.896;2022-10-28T10:28:32;3.83;;;2.53;;
21114;SDS011;10715;48.546;9.896;2022-10-28T10:31:04;4.07;;;2.80;;
21114;SDS011;10715;48.546;9.896;2022-10-28T10:33:35;3.33;;;2.60;;
21114;SDS011;10715;48.546;9.896;2022-10-28T10:38:35;4.53;;;2.90;;
21114;SDS011;10715;48.546;9.896;2022-10-28T10:41:03;5.90;;;2.37;;
21114;SDS011;10715;48.546;9.896;2022-10-28T10:48:28;5.93;;;2.70;;
21114;SDS011;10715;48.546;9.896;2022-10-28T10:50:56;20.90;;;3.27;;
21114;SDS011;10715;48.546;9.896;2022-10-28T10:53:23;11.60;;;3.37;;
21114;SDS011;10715;48.546;9.896;2022-10-28T10:55:55;10.40;;;4.20;;
21114;SDS011;10715;48.546;9.896;2022-10-28T10:58:26;4.80;;;2.73;;
21114;SDS011;10715;48.546;9.896;2022-10-28T11:00:56;7.77;;;2.57;;
21114;SDS011;10715;48.546;9.896;2022-10-28T11:06:22;4.23;;;2.50;;
21114;SDS011;10715;48.546;9.896;2022-10-28T11:08:58;7.50;;;3.63;;
21114;SDS011;10715;48.546;9.896;2022-10-28T11:11:32;6.40;;;3.07;;
21114;SDS011;10715;48.546;9.896;2022-10-28T11:16:50;4.80;;;2.23;;
21114;SDS011;10715;48.546;9.896;2022-10-28T11:19:21;3.33;;;2.27;;
21114;SDS011;10715;48.546;9.896;2022-10-28T11:21:50;4.80;;;2.50;;
21114;SDS011;10715;48.546;9.896;2022-10-28T11:30:10;5.50;;;2.97;;
21114;SDS011;10715;48.546;9.896;2022-10-28T11:54:44;6.63;;;2.87;;
21114;SDS011;10715;48.546;9.896;2022-10-28T12:05:34;2.77;;;2.57;;
21114;SDS011;10715;48.546;9.896;2022-10-28T12:08:03;5.20;;;2.40;;
21114;SDS011;10715;48.546;9.896;2022-10-28T12:13:35;8.50;;;2.30;;
21114;SDS011;10715;48.546;9.896;2022-10-28T12:16:35;8.93;;;2.33;;
21114;SDS011;10715;48.546;9.896;2022-10-28T12:19:23;3.40;;;1.63;;
21114;SDS011;10715;48.546;9.896;2022-10-28T12:24:37;9.20;;;2.37;;
21114;SDS011;10715;48.546;9.896;2022-10-28T12:27:11;4.00;;;1.70;;
21114;SDS011;10715;48.546;9.896;2022-10-28T12:29:52;2.30;;;1.30;;
21114;SDS011;10715;48.546;9.896;2022-10-28T12:32:25;4.07;;;1.47;;
21114;SDS011;10715;48.546;9.896;2022-10-28T12:35:13;3.90;;;1.50;;
21114;SDS011;10715;48.546;9.896;2022-10-28T12:37:53;3.30;;;1.77;;
21114;SDS011;10715;48.546;9.896;2022-10-28T12:40:47;21.13;;;2.07;;
21114;SDS011;10715;48.546;9.896;2022-10-28T12:43:39;3.37;;;1.30;;
21114;SDS011;10715;48.546;9.896;2022-10-28T12:49:00;5.13;;;2.40;;
21114;SDS011;10715;48.546;9.896;2022-10-28T12:51:40;7.07;;;2.20;;
21114;SDS011;10715;48.546;9.896;2022-10-28T12:54:17;9.17;;;2.30;;
21114;SDS011;10715;48.546;9.896;2022-10-28T12:56:53;3.17;;;1.73;;
21114;SDS011;10715;48.546;9.896;2022-10-28T13:02:04;4.77;;;2.07;;
21114;SDS011;10715;48.546;9.896;2022-10-28T13:04:42;7.90;;;2.27;;
21114;SDS011;10715;48.546;9.896;2022-10-28T13:07:18;4.53;;;1.77;;
21114;SDS011;10715;48.546;9.896;2022-10-28T13:21:20;8.23;;;3.30;;
21114;SDS011;10715;48.546;9.896;2022-10-28T13:26:48;11.20;;;2.10;;
21114;SDS011;10715;48.546;9.896;2022-10-28T13:29:33;3.00;;;1.33;;
21114;SDS011;10715;48.546;9.896;2022-10-28T13:32:00;9.43;;;1.23;;
21114;SDS011;10715;48.546;9.896;2022-10-28T13:34:29;3.03;;;1.67;;
21114;SDS011;10715;48.546;9.896;2022-10-28T13:37:02;3.87;;;1.87;;
21114;SDS011;10715;48.546;9.896;2022-10-28T13:44:51;4.53;;;2.23;;
21114;SDS011;10715;48.546;9.896;2022-10-28T13:47:26;1.50;;;1.30;;
21114;SDS011;10715;48.546;9.896;2022-10-28T13:52:34;8.07;;;2.27;;
21114;SDS011;10715;48.546;9.896;2022-10-28T13:58:20;2.70;;;1.97;;
21114;SDS011;10715;48.546;9.896;2022-10-28T14:00:48;4.63;;;1.93;;
21114;SDS011;10715;48.546;9.896;2022-10-28T14:03:21;11.33;;;2.50;;
21114;SDS011;10715;48.546;9.896;2022-10-28T14:05:50;8.13;;;2.77;;
21114;SDS011;10715;48.546;9.896;2022-10-28T14:08:32;2.53;;;1.80;;
21114;SDS011;10715;48.546;9.896;2022-10-28T14:11:10;2.40;;;2.17;;
21114;SDS011;10715;48.546;9.896;2022-10-28T14:19:30;5.00;;;1.47;;
21114;SDS011;10715;48.546;9.896;2022-10-28T14:21:55;7.10;;;2.93;;
21114;SDS011;10715;48.546;9.896;2022-10-28T14:24:40;6.67;;;3.80;;
21114;SDS011;10715;48.546;9.896;2022-10-28T14:51:14;14.30;;;4.93;;
21114;SDS011;10715;48.546;9.896;2022-10-28T14:53:48;4.03;;;3.60;;
21114;SDS011;10715;48.546;9.896;2022-10-28T14:56:21;7.23;;;4.07;;
21114;SDS011;10715;48.546;9.896;2022-10-28T14:58:49;7.43;;;3.50;;
21114;SDS011;10715;48.546;9.896;2022-10-28T15:03:42;3.70;;;2.60;;
21114;SDS011;10715;48.546;9.896;2022-10-28T15:06:30;4.50;;;2.90;;
21114;SDS011;10715;48.546;9.896;2022-10-28T15:09:04;13.83;;;2.83;;
21114;SDS011;10715;48.546;9.896;2022-10-28T15:11:46;4.60;;;2.67;;
21114;SDS011;10715;48.546;9.896;2022-10-28T15:14:23;4.10;;;2.53;;
21114;SDS011;10715;48.546;9.896;2022-10-28T15:17:11;5.60;;;3.23;;
21114;SDS011;10715;48.546;9.896;2022-10-28T15:19:37;8.90;;;3.47;;
21114;SDS011;10715;48.546;9.896;2022-10-28T15:24:35;4.60;;;2.83;;
21114;SDS011;10715;48.546;9.896;2022-10-28T15:27:01;5.33;;;3.30;;
21114;SDS011;10715;48.546;9.896;2022-10-28T15:29:27;10.77;;;3.10;;
21114;SDS011;10715;48.546;9.896;2022-10-28T15:32:10;6.50;;;1.93;;
21114;SDS011;10715;48.546;9.896;2022-10-28T15:34:38;4.03;;;2.10;;
21114;SDS011;10715;48.546;9.896;2022-10-28T15:37:04;9.20;;;2.83;;
21114;SDS011;10715;48.546;9.896;2022-10-28T15:39:31;3.00;;;2.80;;
21114;SDS011;10715;48.546;9.896;2022-10-28T15:41:57;8.77;;;2.27;;
21114;SDS011;10715;48.546;9.896;2022-10-28T15:44:26;7.30;;;1.93;;
21114;SDS011;10715;48.546;9.896;2022-10-28T15:47:44;7.13;;;3.00;;
21114;SDS011;10715;48.546;9.896;2022-10-28T15:49:57;3.70;;;2.50;;
21114;SDS011;10715;48.546;9.896;2022-10-28T15:52:44;9.10;;;2.13;;
21114;SDS011;10715;48.546;9.896;2022-10-28T15:57:48;6.60;;;2.13;;
21114;SDS011;10715;48.546;9.896;2022-10-28T16:02:51;5.73;;;2.77;;
21114;SDS011;10715;48.546;9.896;2022-10-28T16:08:25;4.37;;;2.37;;
21114;SDS011;10715;48.546;9.896;2022-10-28T16:16:04;10.03;;;2.97;;
21114;SDS011;10715;48.546;9.896;2022-10-28T16:18:41;8.53;;;2.50;;
21114;SDS011;10715;48.546;9.896;2022-10-28T16:21:15;5.70;;;2.60;;
21114;SDS011;10715;48.546;9.896;2022-10-28T16:23:44;1.73;;;1.63;;
21114;SDS011;10715;48.546;9.896;2022-10-28T16:26:12;6.33;;;2.87;;
21114;SDS011;10715;48.546;9.896;2022-10-28T16:28:38;5.00;;;3.00;;
21114;SDS011;10715;48.546;9.896;2022-10-28T16:31:04;5.70;;;2.33;;
21114;SDS011;10715;48.546;9.896;2022-10-28T16:33:32;3.60;;;1.97;;
21114;SDS011;10715;48.546;9.896;2022-10-28T16:35:59;2.70;;;2.43;;
21114;SDS011;10715;48.546;9.896;2022-10-28T16:38:27;12.10;;;3.33;;
21114;SDS011;10715;48.546;9.896;2022-10-28T16:40:54;5.77;;;3.00;;
21114;SDS011;10715;48.546;9.896;2022-10-28T16:43:25;4.63;;;3.30;;
21114;SDS011;10715;48.546;9.896;2022-10-28T16:45:52;4.30;;;2.47;;
21114;SDS011;10715;48.546;9.896;2022-10-28T16:48:21;11.00;;;3.90;;
21114;SDS011;10715;48.546;9.896;2022-10-28T16:50:52;10.47;;;4.60;;
21114;SDS011;10715;48.546;9.896;2022-10-28T16:53:26;8.00;;;4.90;;
21114;SDS011;10715;48.546;9.896;2022-10-28T16:55:52;6.03;;;3.77;;
21114;SDS011;10715;48.546;9.896;2022-10-28T16:58:23;7.10;;;4.50;;
21114;SDS011;10715;48.546;9.896;2022-10-28T17:00:50;15.03;;;4.20;;
21114;SDS011;10715;48.546;9.896;2022-10-28T17:03:16;13.67;;;4.60;;
21114;SDS011;10715;48.546;9.896;2022-10-28T17:05:42;7.97;;;4.57;;
21114;SDS011;10715;48.546;9.896;2022-10-28T17:08:09;5.60;;;4.03;;
21114;SDS011;10715;48.546;9.896;2022-10-28T17:10:35;6.63;;;4.77;;
21114;SDS011;10715;48.546;9.896;2022-10-28T17:13:04;12.10;;;4.20;;
21114;SDS011;10715;48.546;9.896;2022-10-28T17:15:40;5.63;;;3.33;;
21114;SDS011;10715;48.546;9.896;2022-10-28T17:18:07;3.13;;;2.93;;
21114;SDS011;10715;48.546;9.896;2022-10-28T17:20:35;4.67;;;3.57;;
21114;SDS011;10715;48.546;9.896;2022-10-28T17:23:02;3.43;;;2.90;;
21114;SDS011;10715;48.546;9.896;2022-10-28T17:25:28;11.10;;;3.20;;
21114;SDS011;10715;48.546;9.896;2022-10-28T17:27:54;6.23;;;2.53;;
21114;SDS011;10715;48.546;9.896;2022-10-28T17:30:20;2.90;;;2.70;;
21114;SDS011;10715;48.546;9.896;2022-10-28T17:32:50;8.27;;;4.17;;
21114;SDS011;10715;48.546;9.896;2022-10-28T17:35:17;11.47;;;2.80;;
21114;SDS011;10715;48.546;9.896;2022-10-28T17:37:44;7.40;;;3.00;;
21114;SDS011;10715;48.546;9.896;2022-10-28T17:40:10;6.70;;;2.83;;
21114;SDS011;10715;48.546;9.896;2022-10-28T17:42:36;5.37;;;2.30;;
21114;SDS011;10715;48.546;9.896;2022-10-28T17:45:02;7.43;;;2.30;;
21114;SDS011;10715;48.546;9.896;2022-10-28T17:47:28;6.40;;;2.10;;
21114;SDS011;10715;48.546;9.896;2022-10-28T17:49:57;3.53;;;2.30;;
21114;SDS011;10715;48.546;9.896;2022-10-28T17:52:24;4.67;;;1.67;;
21114;SDS011;10715;48.546;9.896;2022-10-28T17:54:51;6.70;;;3.60;;
21114;SDS011;10715;48.546;9.896;2022-10-28T17:57:16;6.10;;;2.10;;
21114;SDS011;10715;48.546;9.896;2022-10-28T17:59:42;2.90;;;2.33;;
21114;SDS011;10715;48.546;9.896;2022-10-28T18:02:11;7.97;;;2.50;;
21114;SDS011;10715;48.546;9.896;2022-10-28T18:04:38;3.23;;;1.73;;
21114;SDS011;10715;48.546;9.896;2022-10-28T18:07:07;6.10;;;2.10;;
21114;SDS011;10715;48.546;9.896;2022-10-28T18:09:32;4.70;;;1.73;;
21114;SDS011;10715;48.546;9.896;2022-10-28T18:11:58;4.50;;;2.47;;
21114;SDS011;10715;48.546;9.896;2022-10-28T18:14:27;4.73;;;3.13;;
21114;SDS011;10715;48.546;9.896;2022-10-28T18:16:53;4.70;;;2.43;;
21114;SDS011;10715;48.546;9.896;2022-10-28T18:19:19;4.43;;;3.50;;
21114;SDS011;10715;48.546;9.896;2022-10-28T18:21:44;5.23;;;2.80;;
21114;SDS011;10715;48.546;9.896;2022-10-28T18:24:11;7.03;;;2.47;;
21114;SDS011;10715;48.546;9.896;2022-10-28T18:26:37;9.33;;;2.70;;
21114;SDS011;10715;48.546;9.896;2022-10-28T18:29:04;1.73;;;1.63;;
21114;SDS011;10715;48.546;9.896;2022-10-28T18:31:33;3.27;;;2.97;;
21114;SDS011;10715;48.546;9.896;2022-10-28T18:33:59;2.97;;;1.67;;
21114;SDS011;10715;48.546;9.896;2022-10-28T18:36:26;10.63;;;2.63;;
21114;SDS011;10715;48.546;9.896;2022-10-28T18:38:55;2.23;;;1.60;;
21114;SDS011;10715;48.546;9.896;2022-10-28T18:41:25;3.27;;;2.50;;
21114;SDS011;10715;48.546;9.896;2022-10-28T18:43:59;8.33;;;2.10;;
21114;SDS011;10715;48.546;9.896;2022-10-28T18:46:27;4.50;;;2.73;;